Time;durP1;ratioP1;P1;durP2;ratioP2;P2;SDS_P1;SDS_P2;PMS_P1;PMS_P2;Temp;Humidity;BMP_temperature;BMP_pressure;BME280_temperature;BME280_humidity;BME280_pressure;Samples;Min_cycle;Max_cycle;Signal;HPM_P1;HPM_P2
2023/12/29 00:00:41;;;;;;;2.23;1.90;;;;;;;8.58;100.00;98224.97;5101456;28;20257;-78
2023/12/29 00:03:07;;;;;;;2.70;2.07;;;;;;;8.63;100.00;98215.84;5101391;28;20223;-78
2023/12/29 00:05:36;;;;;;;2.33;1.70;;;;;;;8.68;100.00;98207.66;5101199;28;20258;-78
2023/12/29 00:08:02;;;;;;;2.17;1.77;;;;;;;8.77;100.00;98201.84;5101105;28;20217;-79
2023/12/29 00:10:29;;;;;;;3.40;2.20;;;;;;;8.84;100.00;98197.88;5101197;28;20264;-79
2023/12/29 00:12:55;;;;;;;2.23;2.03;;;;;;;8.87;100.00;98206.44;5101232;28;20214;-79
2023/12/29 00:15:22;;;;;;;3.40;1.93;;;;;;;8.88;100.00;98202.88;5101014;28;20264;-79
2023/12/29 00:17:48;;;;;;;2.67;2.10;;;;;;;8.90;100.00;98211.56;5101367;28;20247;-79
2023/12/29 00:20:15;;;;;;;3.70;2.17;;;;;;;8.95;100.00;98201.59;5101106;28;20230;-79
2023/12/29 00:22:43;;;;;;;2.30;2.00;;;;;;;8.94;100.00;98204.31;5101047;28;20281;-78
2023/12/29 00:25:09;;;;;;;2.90;1.90;;;;;;;9.02;100.00;98196.75;5100626;28;20206;-78
2023/12/29 00:27:36;;;;;;;3.80;2.33;;;;;;;9.09;100.00;98200.69;5100938;28;20226;-78
2023/12/29 00:30:03;;;;;;;2.13;1.70;;;;;;;9.14;100.00;98191.59;5100868;28;20258;-80
2023/12/29 00:32:30;;;;;;;2.10;1.90;;;;;;;9.15;100.00;98192.41;5100702;28;20222;-79
2023/12/29 00:34:56;;;;;;;3.40;1.80;;;;;;;9.22;100.00;98189.31;5100713;28;20266;-78
2023/12/29 00:37:23;;;;;;;2.57;2.00;;;;;;;9.24;100.00;98187.41;5100470;28;20214;-79
2023/12/29 00:39:51;;;;;;;2.50;1.60;;;;;;;9.28;100.00;98185.41;5100303;28;20195;-79
2023/12/29 00:42:17;;;;;;;3.03;2.10;;;;;;;9.28;100.00;98188.91;5100839;28;20224;-78
2023/12/29 00:44:44;;;;;;;2.50;2.10;;;;;;;9.30;100.00;98186.19;5100763;28;20266;-79
2023/12/29 00:47:10;;;;;;;2.03;1.80;;;;;;;9.26;100.00;98187.31;5100547;28;20234;-79
2023/12/29 00:49:39;;;;;;;2.50;2.00;;;;;;;9.27;100.00;98195.13;5099447;28;20252;-79
2023/12/29 00:52:06;;;;;;;2.70;1.97;;;;;;;9.28;100.00;98190.69;5100644;28;20247;-78
2023/12/29 00:54:33;;;;;;;3.80;2.73;;;;;;;9.23;100.00;98206.81;5100583;28;20256;-79
2023/12/29 00:57:00;;;;;;;2.97;2.00;;;;;;;9.26;100.00;98201.38;5100310;28;20176;-79
2023/12/29 00:59:27;;;;;;;3.17;2.10;;;;;;;9.25;100.00;98194.38;5097547;28;20186;-78
2023/12/29 01:01:53;;;;;;;2.50;2.10;;;;;;;9.30;100.00;98196.75;5079786;28;20283;-78
2023/12/29 01:04:20;;;;;;;2.80;1.97;;;;;;;9.28;100.00;98193.34;5084547;28;20264;-79
2023/12/29 01:06:46;;;;;;;3.43;2.10;;;;;;;9.22;100.00;98210.41;5079261;28;20290;-79
2023/12/29 01:09:13;;;;;;;2.90;1.87;;;;;;;9.21;100.00;98208.72;5080186;28;20259;-78
2023/12/29 01:11:39;;;;;;;2.87;2.10;;;;;;;9.26;100.00;98211.06;5085123;28;20211;-79
2023/12/29 01:14:07;;;;;;;2.80;1.90;;;;;;;9.21;100.00;98199.94;5078796;28;20258;-78
2023/12/29 01:16:34;;;;;;;3.43;1.90;;;;;;;9.20;100.00;98190.34;5079608;28;20195;-79
2023/12/29 01:19:00;;;;;;;2.37;2.10;;;;;;;9.19;100.00;98199.19;5085149;28;20273;-79
2023/12/29 01:21:27;;;;;;;3.03;2.37;;;;;;;9.29;100.00;98195.03;5073594;28;20257;-79
2023/12/29 01:23:53;;;;;;;2.70;2.10;;;;;;;9.33;100.00;98178.94;5065606;28;20274;-79
2023/12/29 01:26:20;;;;;;;2.47;2.13;;;;;;;9.41;100.00;98188.97;5078949;28;20385;-78
2023/12/29 01:28:46;;;;;;;3.40;2.37;;;;;;;9.44;100.00;98183.50;5084177;28;20196;-78
2023/12/29 01:31:14;;;;;;;2.30;1.90;;;;;;;9.45;100.00;98175.50;5099601;28;20248;-79
2023/12/29 01:33:41;;;;;;;3.40;2.30;;;;;;;9.50;100.00;98178.72;5099378;28;20205;-79
2023/12/29 01:36:07;;;;;;;2.97;2.33;;;;;;;9.52;100.00;98186.50;5099571;28;20262;-79
2023/12/29 01:38:34;;;;;;;3.13;2.13;;;;;;;9.51;100.00;98179.53;5099863;28;20195;-79
2023/12/29 01:41:00;;;;;;;2.90;1.90;;;;;;;9.53;100.00;98182.91;5099627;28;20200;-79
2023/12/29 01:43:27;;;;;;;3.57;2.27;;;;;;;9.58;100.00;98165.00;5099660;28;20209;-79
2023/12/29 01:45:53;;;;;;;3.10;2.27;;;;;;;9.55;100.00;98168.69;5085804;28;20215;-79
2023/12/29 01:48:23;;;;;;;2.90;2.53;;;;;;;9.55;100.00;98170.50;5086352;28;20237;-79
2023/12/29 01:50:50;;;;;;;2.83;2.00;;;;;;;9.53;100.00;98167.09;5085513;28;20205;-79
2023/12/29 01:53:16;;;;;;;4.23;2.20;;;;;;;9.56;100.00;98162.50;5099286;28;20186;-78
2023/12/29 01:55:44;;;;;;;2.43;2.23;;;;;;;9.54;100.00;98166.16;5099244;28;20193;-78
2023/12/29 01:58:10;;;;;;;3.23;2.23;;;;;;;9.64;100.00;98148.78;5099365;28;20193;-78
2023/12/29 02:00:37;;;;;;;3.07;2.30;;;;;;;9.62;100.00;98148.84;5098894;28;20273;-78
2023/12/29 02:03:04;;;;;;;2.70;2.27;;;;;;;9.59;100.00;98153.50;5098682;28;20244;-78
2023/12/29 02:05:35;;;;;;;6.30;2.50;;;;;;;9.65;100.00;98143.41;5099150;28;20194;-78
2023/12/29 02:08:03;;;;;;;2.57;2.20;;;;;;;9.67;100.00;98138.03;5099040;28;20214;-78
2023/12/29 02:10:30;;;;;;;2.93;2.47;;;;;;;9.65;100.00;98142.53;5099157;28;20212;-78
2023/12/29 02:12:59;;;;;;;3.67;2.70;;;;;;;9.68;100.00;98135.28;5099046;28;20251;-78
2023/12/29 02:15:25;;;;;;;3.10;2.20;;;;;;;9.71;100.00;98134.22;5098836;28;20208;-78
2023/12/29 02:18:00;;;;;;;3.60;2.70;;;;;;;9.69;100.00;98136.13;5099003;28;20211;-78
2023/12/29 02:20:27;;;;;;;3.70;2.40;;;;;;;9.71;100.00;98134.22;5099037;28;20175;-78
2023/12/29 02:22:55;;;;;;;4.23;2.33;;;;;;;9.71;100.00;98131.59;5097829;28;20214;-78
2023/12/29 02:25:23;;;;;;;3.83;2.40;;;;;;;9.74;100.00;98134.03;5098521;28;20210;-77
2023/12/29 02:27:55;;;;;;;3.40;2.27;;;;;;;9.71;100.00;98136.88;5098726;28;20223;-78
2023/12/29 02:30:30;;;;;;;2.40;2.13;;;;;;;9.76;100.00;98132.13;5098373;28;20242;-78
2023/12/29 02:33:02;;;;;;;2.07;1.87;;;;;;;9.74;100.00;98131.41;5096656;28;20223;-78
2023/12/29 02:35:32;;;;;;;2.63;2.17;;;;;;;9.77;100.00;98136.47;5096663;28;20315;-78
2023/12/29 02:37:59;;;;;;;2.20;2.00;;;;;;;9.76;100.00;98133.00;5098721;28;20186;-78
2023/12/29 02:40:27;;;;;;;2.50;2.07;;;;;;;9.75;100.00;98135.72;5098662;28;20193;-78
2023/12/29 02:42:54;;;;;;;2.90;2.40;;;;;;;9.77;100.00;98133.81;5098458;28;20211;-78
2023/12/29 02:45:21;;;;;;;3.57;2.40;;;;;;;9.82;100.00;98137.00;5098370;28;20212;-78
2023/12/29 02:47:48;;;;;;;2.47;2.27;;;;;;;9.78;100.00;98122.34;5098391;28;20219;-78
2023/12/29 02:50:14;;;;;;;2.83;2.10;;;;;;;9.82;100.00;98126.44;5098442;28;20258;-77
2023/12/29 02:52:40;;;;;;;3.27;2.30;;;;;;;9.78;100.00;98124.97;5098408;28;20239;-79
2023/12/29 02:55:07;;;;;;;2.73;2.30;;;;;;;9.83;100.00;98139.56;5098294;28;20262;-78
2023/12/29 02:57:35;;;;;;;2.70;2.40;;;;;;;9.79;100.00;98126.66;5098398;28;20195;-77
2023/12/29 03:00:03;;;;;;;3.07;2.20;;;;;;;9.81;100.00;98120.34;5098038;28;20255;-78
2023/12/29 03:02:30;;;;;;;3.70;2.43;;;;;;;9.76;100.00;98111.88;5098085;28;20219;-78
2023/12/29 03:04:56;;;;;;;2.53;2.20;;;;;;;9.71;100.00;98113.97;5098249;28;20206;-78
2023/12/29 03:07:23;;;;;;;3.50;2.43;;;;;;;9.67;100.00;98122.19;5098156;28;20208;-78
2023/12/29 03:09:49;;;;;;;3.37;2.57;;;;;;;9.71;100.00;98129.81;5098303;28;20254;-78
2023/12/29 03:12:16;;;;;;;3.00;2.60;;;;;;;9.75;100.00;98127.81;5097540;28;20224;-78
2023/12/29 03:14:46;;;;;;;3.47;2.30;;;;;;;9.72;100.00;98130.66;5098291;28;20250;-78
2023/12/29 03:17:13;;;;;;;2.20;1.90;;;;;;;9.64;100.00;98122.38;5098098;28;20179;-78
2023/12/29 03:19:39;;;;;;;2.57;2.33;;;;;;;9.61;100.00;98122.59;5097986;28;20192;-78
2023/12/29 03:22:06;;;;;;;3.00;2.40;;;;;;;9.61;100.00;98112.03;5097993;28;20286;-78
2023/12/29 03:24:32;;;;;;;3.20;2.20;;;;;;;9.56;100.00;98109.72;5097975;28;20256;-78
2023/12/29 03:26:59;;;;;;;3.33;2.27;;;;;;;9.57;100.00;98107.91;5097839;28;20204;-78
2023/12/29 03:29:25;;;;;;;4.17;2.50;;;;;;;9.52;100.00;98113.50;5097756;28;20207;-79
2023/12/29 03:31:53;;;;;;;3.23;2.40;;;;;;;9.54;100.00;98118.69;5097884;28;20273;-79
2023/12/29 03:34:20;;;;;;;3.63;2.43;;;;;;;9.57;100.00;98118.47;5097967;28;20191;-78
2023/12/29 03:36:47;;;;;;;3.80;2.33;;;;;;;9.57;100.00;98108.75;5097837;28;20221;-79
2023/12/29 03:39:13;;;;;;;3.40;2.20;;;;;;;9.59;100.00;98108.63;5097733;28;20183;-79
2023/12/29 03:41:40;;;;;;;2.73;2.27;;;;;;;9.57;100.00;98116.69;5097617;28;20215;-79
2023/12/29 03:44:06;;;;;;;3.13;2.30;;;;;;;9.53;100.00;98114.31;5097977;28;20194;-79
2023/12/29 03:46:33;;;;;;;3.37;2.70;;;;;;;9.54;100.00;98116.03;5097749;28;20202;-78
2023/12/29 03:49:01;;;;;;;3.53;2.37;;;;;;;9.52;100.00;98108.22;5097693;28;20216;-78
2023/12/29 03:51:27;;;;;;;3.10;2.30;;;;;;;9.50;100.00;98111.91;5097909;28;20222;-78
2023/12/29 03:53:54;;;;;;;3.47;2.40;;;;;;;9.46;100.00;98118.31;5097743;28;20191;-78
2023/12/29 03:56:20;;;;;;;5.50;2.37;;;;;;;9.44;100.00;98130.75;5091716;28;20295;-79
2023/12/29 03:58:47;;;;;;;3.37;2.60;;;;;;;9.43;100.00;98129.06;5078945;28;20301;-79
2023/12/29 04:01:15;;;;;;;4.13;2.77;;;;;;;9.46;100.00;98120.94;5078407;28;20237;-79
2023/12/29 04:03:42;;;;;;;4.10;2.50;;;;;;;9.45;100.00;98124.53;5078735;28;20208;-79
2023/12/29 04:06:11;;;;;;;3.67;2.50;;;;;;;9.47;100.00;98120.00;5078010;28;20215;-79
2023/12/29 04:08:39;;;;;;;3.87;2.57;;;;;;;9.45;100.00;98116.63;5078911;28;20591;-79
2023/12/29 04:11:06;;;;;;;2.33;2.03;;;;;;;9.45;100.00;98111.34;5078169;28;20210;-78
2023/12/29 04:13:32;;;;;;;4.73;2.20;;;;;;;9.43;100.00;98107.97;5078968;28;20818;-79
2023/12/29 04:15:59;;;;;;;2.33;2.10;;;;;;;9.36;100.00;98104.03;5078554;28;20212;-78
2023/12/29 04:18:25;;;;;;;2.40;1.97;;;;;;;9.23;100.00;98108.41;5078913;28;20202;-78
2023/12/29 04:20:52;;;;;;;2.17;1.97;;;;;;;9.14;100.00;98117.75;5079267;28;20214;-78
2023/12/29 04:23:20;;;;;;;3.00;2.27;;;;;;;9.07;100.00;98123.50;5079541;28;20214;-78
2023/12/29 04:25:46;;;;;;;2.53;2.33;;;;;;;8.97;100.00;98117.97;5082389;28;20214;-78
2023/12/29 04:28:13;;;;;;;3.13;2.13;;;;;;;8.95;100.00;98117.22;5085205;28;20315;-77
2023/12/29 04:30:39;;;;;;;3.33;2.20;;;;;;;8.93;100.00;98118.28;5082489;28;20218;-78
2023/12/29 04:33:06;;;;;;;5.13;2.30;;;;;;;8.95;100.00;98119.00;5082031;28;20235;-78
2023/12/29 04:35:32;;;;;;;2.90;2.07;;;;;;;8.94;100.00;98122.59;5082072;28;20211;-78
2023/12/29 04:37:59;;;;;;;2.73;2.23;;;;;;;8.94;100.00;98125.22;5081752;28;20216;-78
2023/12/29 04:40:26;;;;;;;2.07;1.87;;;;;;;8.99;100.00;98128.44;5081695;28;20303;-78
2023/12/29 04:42:53;;;;;;;3.00;1.87;;;;;;;9.02;100.00;98128.22;5082399;28;20253;-78
2023/12/29 04:45:20;;;;;;;2.40;2.10;;;;;;;9.06;100.00;98127.09;5082062;28;20214;-80
2023/12/29 04:47:47;;;;;;;2.73;2.30;;;;;;;9.07;100.00;98126.13;5082046;28;20773;-79
2023/12/29 04:50:13;;;;;;;2.83;2.47;;;;;;;9.08;100.00;98128.69;5082973;28;20215;-79
2023/12/29 04:52:40;;;;;;;3.77;1.73;;;;;;;9.11;100.00;98133.75;5082653;28;20520;-79
2023/12/29 04:55:07;;;;;;;2.13;1.93;;;;;;;9.12;100.00;98132.81;5082334;28;20576;-79
2023/12/29 04:57:35;;;;;;;2.37;1.60;;;;;;;9.14;100.00;98140.63;5082327;28;20212;-79
2023/12/29 05:00:01;;;;;;;2.93;2.00;;;;;;;9.14;100.00;98140.63;5082386;28;20218;-79
2023/12/29 05:02:27;;;;;;;4.37;2.20;;;;;;;9.16;100.00;98144.00;5081033;28;20231;-79
2023/12/29 05:04:54;;;;;;;2.47;2.17;;;;;;;9.17;100.00;98145.72;5081436;28;20225;-79
2023/12/29 05:07:21;;;;;;;2.73;1.70;;;;;;;9.16;100.00;98146.63;5080554;28;20245;-79
2023/12/29 05:09:47;;;;;;;2.30;1.97;;;;;;;9.12;100.00;98139.88;5081395;28;20206;-79
2023/12/29 05:12:14;;;;;;;2.30;2.10;;;;;;;9.14;100.00;98136.22;5080353;28;20232;-79
2023/12/29 05:14:41;;;;;;;2.00;1.83;;;;;;;9.15;100.00;98142.31;5080724;28;20695;-79
2023/12/29 05:17:08;;;;;;;2.13;1.83;;;;;;;9.15;100.00;98150.22;5081123;28;20217;-79
2023/12/29 05:19:34;;;;;;;2.13;1.83;;;;;;;9.14;100.00;98149.41;5080018;28;20249;-79
2023/12/29 05:22:01;;;;;;;2.57;2.07;;;;;;;9.14;100.00;98148.53;5079585;28;20241;-79
2023/12/29 05:24:27;;;;;;;3.87;2.30;;;;;;;9.11;100.00;98148.75;5080444;28;20245;-79
2023/12/29 05:26:54;;;;;;;5.07;2.20;;;;;;;9.01;100.00;98142.34;5085669;28;20205;-79
2023/12/29 05:29:20;;;;;;;3.03;2.17;;;;;;;8.94;100.00;98141.03;5099174;28;20216;-79
2023/12/29 05:31:48;;;;;;;2.40;2.00;;;;;;;8.90;100.00;98135.13;5099174;28;20225;-79
2023/12/29 05:34:15;;;;;;;3.10;2.30;;;;;;;8.87;100.00;98145.00;5099002;28;20247;-79
2023/12/29 05:36:42;;;;;;;2.93;2.50;;;;;;;8.81;100.00;98135.66;5098362;28;20182;-79
2023/12/29 05:39:08;;;;;;;2.70;2.17;;;;;;;8.81;100.00;98142.75;5098944;28;20202;-79
2023/12/29 05:41:35;;;;;;;3.20;2.17;;;;;;;8.75;100.00;98146.59;5098506;28;20213;-79
2023/12/29 05:44:01;;;;;;;3.03;2.30;;;;;;;8.73;100.00;98145.00;5098837;28;20349;-78
2023/12/29 05:46:28;;;;;;;2.30;2.10;;;;;;;8.78;100.00;98148.19;5098512;28;20199;-79
2023/12/29 05:48:55;;;;;;;3.03;2.07;;;;;;;8.75;100.00;98135.22;5098447;28;20213;-79
2023/12/29 05:51:21;;;;;;;2.53;2.30;;;;;;;8.75;100.00;98145.75;5098433;28;20441;-79
2023/12/29 05:53:48;;;;;;;2.50;2.30;;;;;;;8.77;100.00;98143.88;5098500;28;20201;-79
2023/12/29 05:56:15;;;;;;;3.83;2.37;;;;;;;8.77;100.00;98141.22;5098301;28;20197;-78
2023/12/29 05:58:41;;;;;;;3.43;2.60;;;;;;;8.75;100.00;98137.84;5098482;28;20235;-79
2023/12/29 06:01:08;;;;;;;3.10;2.50;;;;;;;8.74;100.00;98139.63;5097772;28;20222;-79
2023/12/29 06:03:34;;;;;;;2.67;2.10;;;;;;;8.76;100.00;98148.28;5098500;28;20218;-79
2023/12/29 06:06:03;;;;;;;2.77;2.10;;;;;;;8.77;100.00;98152.63;5098060;28;20204;-79
2023/12/29 06:08:29;;;;;;;3.33;2.60;;;;;;;8.81;100.00;98148.03;5097968;28;20232;-79
2023/12/29 06:10:56;;;;;;;3.57;2.37;;;;;;;8.80;100.00;98154.22;5098015;28;20194;-79
2023/12/29 06:13:23;;;;;;;2.50;2.27;;;;;;;8.75;100.00;98143.97;5098020;28;20213;-78
2023/12/29 06:15:49;;;;;;;3.07;2.10;;;;;;;8.69;100.00;98135.59;5098191;28;20187;-78
2023/12/29 06:18:16;;;;;;;2.80;2.30;;;;;;;8.59;100.00;98145.84;5098147;28;20191;-79
2023/12/29 06:20:43;;;;;;;3.07;2.23;;;;;;;8.48;100.00;98148.28;5097966;28;20222;-78
2023/12/29 06:23:10;;;;;;;3.40;2.67;;;;;;;8.35;100.00;98144.72;5097753;28;20217;-79
2023/12/29 06:25:39;;;;;;;3.50;2.70;;;;;;;8.25;100.00;98145.31;5097881;28;20210;-79
2023/12/29 06:28:06;;;;;;;4.53;2.97;;;;;;;8.13;100.00;98140.75;5097663;28;20215;-79
2023/12/29 06:30:32;;;;;;;3.77;2.70;;;;;;;8.06;100.00;98144.69;5097337;28;20200;-79
2023/12/29 06:32:59;;;;;;;3.10;2.47;;;;;;;8.01;100.00;98146.75;5097701;28;20229;-78
2023/12/29 06:35:26;;;;;;;4.40;2.63;;;;;;;7.91;100.00;98141.16;5097360;28;20205;-78
2023/12/29 06:37:52;;;;;;;3.40;2.47;;;;;;;7.89;100.00;98136.97;5097523;28;20217;-78
2023/12/29 06:40:20;;;;;;;2.90;2.43;;;;;;;7.87;100.00;98138.81;5097530;28;20190;-78
2023/12/29 06:42:47;;;;;;;3.83;2.93;;;;;;;7.81;100.00;98131.28;5097435;28;20240;-79
2023/12/29 06:45:13;;;;;;;3.30;2.70;;;;;;;7.80;100.00;98132.22;5097264;28;20244;-79
2023/12/29 06:47:40;;;;;;;3.13;2.53;;;;;;;7.74;100.00;98124.69;5096365;28;20221;-79
2023/12/29 06:50:12;;;;;;;4.93;3.07;;;;;;;7.74;100.00;98128.19;5097437;28;20193;-79
2023/12/29 06:52:38;;;;;;;3.20;2.50;;;;;;;7.71;100.00;98123.06;5097278;28;20212;-78
2023/12/29 06:55:06;;;;;;;5.40;3.30;;;;;;;7.72;100.00;98127.41;5097044;28;20221;-78
2023/12/29 06:57:34;;;;;;;4.47;2.83;;;;;;;7.78;100.00;98124.41;5096849;28;20227;-78
2023/12/29 07:00:00;;;;;;;4.60;3.03;;;;;;;7.85;100.00;98125.75;5097299;28;20253;-79
2023/12/29 07:02:27;;;;;;;4.40;3.00;;;;;;;7.92;100.00;98124.47;5096955;28;20221;-78
2023/12/29 07:04:53;;;;;;;4.10;3.30;;;;;;;8.06;100.00;98132.38;5097096;28;20194;-78
2023/12/29 07:07:20;;;;;;;3.47;2.57;;;;;;;8.17;100.00;98126.47;5096968;28;20237;-79
2023/12/29 07:09:46;;;;;;;3.07;2.43;;;;;;;8.26;100.00;98131.25;5097095;28;20433;-78
2023/12/29 07:12:13;;;;;;;4.67;2.77;;;;;;;8.31;100.00;98129.16;5097085;28;20226;-78
2023/12/29 07:14:43;;;;;;;4.30;2.60;;;;;;;8.39;100.00;98126.94;5096983;28;20259;-78
2023/12/29 07:17:09;;;;;;;3.83;2.53;;;;;;;8.42;100.00;98121.47;5096873;28;20197;-78
2023/12/29 07:19:37;;;;;;;2.87;2.57;;;;;;;8.47;100.00;98129.94;5096919;28;20201;-79
2023/12/29 07:22:05;;;;;;;4.63;2.87;;;;;;;8.46;100.00;98125.63;5096949;28;20223;-79
2023/12/29 07:24:32;;;;;;;3.40;2.50;;;;;;;8.49;100.00;98122.78;5097062;28;20187;-79
2023/12/29 07:26:59;;;;;;;2.70;2.20;;;;;;;8.55;100.00;98130.31;5096540;28;20194;-79
2023/12/29 07:29:26;;;;;;;2.43;2.23;;;;;;;8.57;100.00;98128.44;5097171;28;20219;-79
2023/12/29 07:31:54;;;;;;;3.10;2.17;;;;;;;8.59;100.00;98122.16;5097136;28;20249;-79
2023/12/29 07:34:20;;;;;;;3.50;2.63;;;;;;;8.62;100.00;98123.75;5097149;28;20189;-78
2023/12/29 07:36:47;;;;;;;2.83;2.10;;;;;;;8.64;100.00;98121.84;5096952;28;20219;-78
2023/12/29 07:39:13;;;;;;;9.43;3.70;;;;;;;8.67;100.00;98121.66;5097016;28;20221;-79
2023/12/29 07:41:41;;;;;;;2.57;2.30;;;;;;;8.73;100.00;98122.13;5096630;28;20285;-79
2023/12/29 07:44:08;;;;;;;2.43;1.87;;;;;;;8.79;100.00;98129.66;5096806;28;20206;-79
2023/12/29 07:46:34;;;;;;;2.43;2.20;;;;;;;8.83;100.00;98123.28;5096783;28;20214;-79
2023/12/29 07:49:02;;;;;;;4.00;1.80;;;;;;;8.91;100.00;98118.34;5096769;28;20237;-79
2023/12/29 07:51:29;;;;;;;2.33;2.00;;;;;;;8.91;100.00;98120.13;5096627;28;20241;-79
2023/12/29 07:53:55;;;;;;;4.20;2.00;;;;;;;8.97;100.00;98114.47;5096490;28;20193;-79
2023/12/29 07:56:22;;;;;;;2.30;2.10;;;;;;;8.98;100.00;98122.28;5096706;28;20199;-79
2023/12/29 07:58:48;;;;;;;2.63;1.93;;;;;;;9.10;100.00;98123.28;5098696;28;20253;-78
2023/12/29 08:01:15;;;;;;;2.17;1.70;;;;;;;9.09;100.00;98125.09;5100318;28;20285;-78
2023/12/29 08:03:41;;;;;;;2.20;1.63;;;;;;;9.12;100.00;98124.91;5100778;28;20202;-79
2023/12/29 08:06:09;;;;;;;2.07;1.87;;;;;;;9.13;100.00;98121.31;5100452;28;20263;-78
2023/12/29 08:08:36;;;;;;;2.10;1.90;;;;;;;9.13;100.00;98128.38;5100361;28;20224;-78
2023/12/29 08:11:02;;;;;;;2.30;2.00;;;;;;;9.16;100.00;98130.81;5100478;28;20256;-79
2023/12/29 08:13:29;;;;;;;2.07;1.63;;;;;;;9.23;100.00;98126.88;5100454;28;20435;-79
2023/12/29 08:15:55;;;;;;;1.90;1.67;;;;;;;9.32;100.00;98128.91;5100138;28;20205;-78
2023/12/29 08:18:21;;;;;;;2.60;1.80;;;;;;;9.34;100.00;98127.00;5100424;28;20195;-79
2023/12/29 08:20:48;;;;;;;2.80;1.80;;;;;;;9.37;100.00;98134.75;5100157;28;20257;-79
2023/12/29 08:23:16;;;;;;;4.73;1.83;;;;;;;9.42;100.00;98140.56;5100021;28;20249;-79
2023/12/29 08:25:42;;;;;;;1.97;1.77;;;;;;;9.37;100.00;98130.28;5100014;28;20202;-76
2023/12/29 08:28:09;;;;;;;1.80;1.53;;;;;;;9.41;100.00;98134.44;5100171;28;20257;-80
2023/12/29 08:30:37;;;;;;;1.80;1.67;;;;;;;9.50;100.00;98143.56;5099612;28;20183;-79
2023/12/29 08:33:03;;;;;;;3.13;1.80;;;;;;;9.49;100.00;98137.41;5099947;28;20235;-79
2023/12/29 08:35:30;;;;;;;4.33;1.83;;;;;;;9.57;100.00;98129.00;5099265;28;20198;-79
2023/12/29 08:37:56;;;;;;;3.97;1.80;;;;;;;9.65;100.00;98142.53;5099634;28;20189;-79
2023/12/29 08:40:24;;;;;;;3.37;1.77;;;;;;;9.65;100.00;98139.91;5099653;28;20267;-79
2023/12/29 08:42:50;;;;;;;3.10;2.07;;;;;;;9.66;100.00;98141.63;5099528;28;20220;-79
2023/12/29 08:45:17;;;;;;;2.00;1.80;;;;;;;9.67;100.00;98135.41;5099336;28;20260;-79
2023/12/29 08:47:43;;;;;;;1.70;1.43;;;;;;;9.76;100.00;98137.41;5099676;28;20263;-79
2023/12/29 08:50:10;;;;;;;2.57;1.60;;;;;;;9.77;100.00;98141.75;5099645;28;20233;-79
2023/12/29 08:52:37;;;;;;;2.23;1.77;;;;;;;9.73;100.00;98138.47;5099652;28;20241;-78
2023/12/29 08:55:04;;;;;;;2.90;1.80;;;;;;;9.77;100.00;98149.66;5098864;28;20208;-79
2023/12/29 08:57:32;;;;;;;2.22;2.03;;;;;;;9.80;100.00;98145.03;5080853;28;20412;-79
2023/12/29 08:59:58;;;;;;;2.13;1.90;;;;;;;9.85;100.00;98148.22;5093959;28;20186;-78
2023/12/29 09:02:25;;;;;;;2.60;1.80;;;;;;;9.83;100.00;98149.25;5098486;28;20236;-78
2023/12/29 09:04:52;;;;;;;1.90;1.70;;;;;;;9.85;100.00;98145.56;5097899;28;20194;-79
2023/12/29 09:07:18;;;;;;;2.00;1.70;;;;;;;9.81;100.00;98151.16;5098432;28;20186;-80
2023/12/29 09:09:45;;;;;;;1.87;1.70;;;;;;;9.78;100.00;98157.47;5097720;28;20235;-79
2023/12/29 09:12:11;;;;;;;2.77;1.90;;;;;;;9.78;100.00;98151.38;5099009;28;20298;-80
2023/12/29 09:14:39;;;;;;;2.07;1.87;;;;;;;9.80;100.00;98154.75;5098916;28;20215;-79
2023/12/29 09:17:06;;;;;;;2.50;1.97;;;;;;;9.85;100.00;98152.66;5098894;28;20197;-79
2023/12/29 09:19:32;;;;;;;2.40;1.80;;;;;;;9.79;100.00;98148.63;5097600;28;20201;-79
2023/12/29 09:21:58;;;;;;;2.53;1.87;;;;;;;9.83;100.00;98154.53;5096093;28;20239;-79
2023/12/29 09:24:25;;;;;;;2.13;1.80;;;;;;;9.87;100.00;98156.91;5099696;28;20203;-80
2023/12/29 09:26:52;;;;;;;1.93;1.40;;;;;;;9.95;100.00;98159.00;5099644;28;20262;-80
2023/12/29 09:29:18;;;;;;;2.80;1.90;;;;;;;9.98;100.00;98161.47;5099391;28;20220;-79
2023/12/29 09:31:46;;;;;;;2.13;1.60;;;;;;;9.91;100.00;98153.09;5099244;28;20274;-79
2023/12/29 09:34:13;;;;;;;1.83;1.40;;;;;;;9.93;100.00;98145.06;5098897;28;20184;-81
2023/12/29 09:36:41;;;;;;;1.73;1.53;;;;;;;9.96;100.00;98156.28;5098015;28;20187;-79
2023/12/29 09:39:08;;;;;;;3.07;1.93;;;;;;;10.06;100.00;98161.81;5094479;28;20190;-79
2023/12/29 09:41:40;;;;;;;2.00;1.80;;;;;;;10.13;100.00;98160.44;5098138;28;20285;-79
2023/12/29 09:44:14;;;;;;;2.10;1.70;;;;;;;10.22;100.00;98158.03;5098564;28;20229;-79
2023/12/29 09:46:42;;;;;;;1.80;1.60;;;;;;;10.35;100.00;98163.34;5098685;28;20176;-79
2023/12/29 09:49:11;;;;;;;1.60;1.50;;;;;;;10.40;100.00;98155.97;5098722;28;20224;-81
2023/12/29 09:51:38;;;;;;;2.13;1.40;;;;;;;10.51;100.00;98164.03;5098663;28;20215;-79
2023/12/29 09:54:05;;;;;;;1.67;1.50;;;;;;;10.57;100.00;98164.44;5098756;28;20248;-79
2023/12/29 09:56:31;;;;;;;1.70;1.47;;;;;;;10.58;100.00;98176.69;5098613;28;20268;-79
2023/12/29 09:58:59;;;;;;;1.90;1.60;;;;;;;10.62;100.00;98166.75;5098542;28;20261;-79
2023/12/29 10:01:29;;;;;;;1.57;1.47;;;;;;;10.59;100.00;98175.72;5098553;28;20268;-79
2023/12/29 10:03:55;;;;;;;1.43;1.33;;;;;;;10.53;100.00;98173.50;5098748;28;20175;-79
2023/12/29 10:06:25;;;;;;;1.30;0.97;;;;;;;10.54;100.00;98171.72;5098452;28;20248;-79
2023/12/29 10:08:52;;;;;;;1.60;1.33;;;;;;;10.63;100.00;98174.56;5098412;28;20234;-78
2023/12/29 10:11:21;;;;;;;1.30;1.13;;;;;;;10.66;100.00;98168.25;5098276;28;20209;-79
2023/12/29 10:13:50;;;;;;;1.77;1.30;;;;;;;10.73;100.00;98166.84;5098521;28;20300;-79
2023/12/29 10:16:25;;;;;;;1.83;1.50;;;;;;;10.83;100.00;98160.81;5098107;28;20197;-79
2023/12/29 10:19:02;;;;;;;1.40;1.30;;;;;;;10.97;100.00;98162.50;5097950;28;20272;-78
2023/12/29 10:21:36;;;;;;;1.40;1.30;;;;;;;10.87;100.00;98156.16;5097650;28;20214;-79
2023/12/29 10:24:11;;;;;;;1.50;1.20;;;;;;;10.75;100.00;98147.31;5097841;28;20248;-80
2023/12/29 10:26:38;;;;;;;1.50;1.30;;;;;;;10.66;100.00;98147.09;5096954;28;20207;-80
2023/12/29 10:29:05;;;;;;;1.40;1.10;;;;;;;10.68;100.00;98140.75;5097289;28;20257;-79
2023/12/29 10:31:31;;;;;;;1.27;1.17;;;;;;;10.62;100.00;98143.81;5095021;28;20215;-79
2023/12/29 10:34:18;;;;;;;2.77;1.20;;;;;;;10.58;100.00;98133.56;5096101;28;20226;-80
2023/12/29 10:36:49;;;;;;;1.33;1.10;;;;;;;10.57;100.00;98131.84;5097409;28;20270;-80
2023/12/29 10:39:16;;;;;;;2.27;1.30;;;;;;;10.57;100.00;98126.56;5097476;28;20175;-79
2023/12/29 10:41:43;;;;;;;1.40;1.30;;;;;;;10.57;100.00;98126.56;5097049;28;20217;-78
2023/12/29 10:44:09;;;;;;;1.50;1.10;;;;;;;10.54;100.00;98121.50;5097483;28;20193;-78
2023/12/29 10:46:36;;;;;;;1.77;1.30;;;;;;;10.57;100.00;98122.16;5096934;28;20195;-79
2023/12/29 10:49:08;;;;;;;1.40;1.30;;;;;;;10.59;100.00;98122.03;5098284;28;20192;-79
2023/12/29 10:51:37;;;;;;;1.80;1.20;;;;;;;10.60;100.00;98113.16;5098425;28;20239;-80
2023/12/29 10:54:05;;;;;;;1.47;1.20;;;;;;;10.59;100.00;98100.91;5098472;28;20180;-79
2023/12/29 10:56:31;;;;;;;1.30;1.20;;;;;;;10.60;100.00;98103.44;5098249;28;20218;-79
2023/12/29 10:59:03;;;;;;;1.20;0.90;;;;;;;10.63;100.00;98086.50;5098173;28;20192;-79
2023/12/29 11:01:30;;;;;;;1.50;1.17;;;;;;;10.63;100.00;98092.66;5096910;28;20223;-80
2023/12/29 11:04:01;;;;;;;1.10;1.00;;;;;;;10.63;100.00;98089.16;5097891;28;20255;-80
2023/12/29 11:06:29;;;;;;;1.10;1.00;;;;;;;10.72;100.00;98083.22;5097173;28;20185;-80
2023/12/29 11:08:55;;;;;;;1.30;1.20;;;;;;;10.78;100.00;98066.94;5096697;28;20443;-78
2023/12/29 11:11:24;;;;;;;1.73;1.33;;;;;;;10.82;100.00;98079.81;5094809;28;20218;-77
2023/12/29 11:13:51;;;;;;;0.90;0.80;;;;;;;10.82;100.00;98061.31;5095082;28;20215;-80
2023/12/29 11:16:21;;;;;;;0.80;0.80;;;;;;;10.85;100.00;98054.97;5085408;28;20554;-80
2023/12/29 11:18:50;;;;;;;1.00;0.90;;;;;;;10.85;100.00;98063.75;5084309;28;20207;-80
2023/12/29 11:21:17;;;;;;;0.77;0.73;;;;;;;10.83;100.00;98070.09;5083823;28;20254;-80
2023/12/29 11:23:44;;;;;;;1.00;0.90;;;;;;;10.82;100.00;98071.06;5086356;28;20265;-79
2023/12/29 11:26:10;;;;;;;1.30;0.90;;;;;;;10.85;100.00;98068.19;5086512;28;20629;-81
2023/12/29 11:28:39;;;;;;;1.27;0.90;;;;;;;10.95;100.00;98062.13;5091511;28;20267;-80
2023/12/29 11:31:05;;;;;;;1.27;0.97;;;;;;;11.00;100.00;98051.25;5096029;28;20292;-81